Kewanee, Illinois
Current Conditions -  °F | °C
As of 7:35 PM on Wednesday 22 Oct 2014 (Local Time) from KC75 Reporting Station
Clear Clear  
Wind Chill: 48°   Ceiling: Unl
Heat Index: 49°   Visibility: 10mi
Dew Point: 35°   Wind: 5mph
Humidity: 57%   Direction: 140°SE
Pressure: 30.23"   Gusts: NA
Location:  41.25°N, 89.92°W
Report Text: KC75 230035Z AUTO 14004KT 10SM CLR 10/02 A3023 RMK AO2 T00960015
Loading
Personal Weather Stations






























Interactive Weather Map
Tropical Storm Tracking
New forecast layout! Learn more

10-Day Weather Forecast

Advertisements
Track Severe Weather on mobile